General Aviation Weather

Text Reports

Enter one or more of the following location identifiers separated by a space:

Zip Code, Four-Character ICAO or Three-Character IATA airport codes.

METAR - Aviation Routine Weather Report
KGTU - Georgetown, Texas
Updated at 7:49 PM GMT on April 17, 2014 (2:49 PM CDT):
METAR KGTU 171949Z 12004KT 2SM BR BKN006 OVC013 16/15 A3011
TAF - Terminal Area Forecast
KGTU - Georgetown, Texas
Updated at 7:49 PM GMT on April 17, 2014 (2:49 PM CDT):
No TAF is currently available for this location.
Decoded:
No decoded TAF is available.
PIREP - Pilot Weather Report
KGTU - Georgetown, Texas
Updated at 7:49 PM GMT on April 17, 2014 (2:49 PM CDT):
No PIREP is currently available for this location.
AIRMET - Airmens Meteorological Information
KGTU - Georgetown, Texas
Updated at 7:49 PM GMT on April 17, 2014 (2:49 PM CDT):
No AIRMET is currently available for this location.
SIGMET - Significant Meteorological Information
KGTU - Georgetown, Texas
Updated at 7:49 PM GMT on April 17, 2014 (2:49 PM CDT):
No SIGMET is currently available for this location.
NOTAM - Notice to Airmen
KGTU - Georgetown, Texas
Updated at 7:49 PM GMT on April 17, 2014 (2:49 PM CDT):
No NOTAM is currently available for this location.
Forecast Area
KGTU - Georgetown, Texas
Updated at 7:49 PM GMT on April 17, 2014 (2:49 PM CDT):
No NOTAM is currently available for this location.
Aviation Weather Maps